Time;durP1;ratioP1;P1;durP2;ratioP2;P2;SDS_P1;SDS_P2;PMS_P1;PMS_P2;Temp;Humidity;BMP_temperature;BMP_pressure;BME280_temperature;BME280_humidity;BME280_pressure;Samples;Min_cycle;Max_cycle;Signal;HPM_P1;HPM_P2
2022/04/28 00:02:10;;;;;;;9.63;4.25;;;;;;;17.68;49.73;99510.06;5051867;28;20032;-86
2022/04/28 00:04:36;;;;;;;8.63;3.80;;;;;;;17.98;49.97;99554.72;5038886;28;20405;-84
2022/04/28 00:07:02;;;;;;;5.85;4.00;;;;;;;17.99;50.04;99559.00;5016649;28;20030;-85
2022/04/28 00:09:27;;;;;;;7.90;3.92;;;;;;;17.82;49.86;99521.41;5016599;28;20036;-85
2022/04/28 00:11:53;;;;;;;7.22;4.05;;;;;;;17.48;49.89;99490.78;5034928;28;20092;-84
2022/04/28 00:14:19;;;;;;;7.88;4.38;;;;;;;17.26;49.98;99458.41;5016657;28;20047;-85
2022/04/28 00:16:45;;;;;;;8.25;3.53;;;;;;;17.97;50.05;99556.56;5016614;28;20536;-85
2022/04/28 00:19:11;;;;;;;5.50;3.75;;;;;;;17.63;50.01;99520.59;5016219;28;20049;-84
2022/04/28 00:21:36;;;;;;;7.63;3.70;;;;;;;17.89;49.83;99540.03;5016187;28;20025;-85
2022/04/28 00:24:02;;;;;;;6.53;3.70;;;;;;;17.75;49.83;99529.50;5033776;28;20026;-84
2022/04/28 00:26:27;;;;;;;7.88;3.50;;;;;;;17.37;49.61;99451.50;5033969;28;20449;-85
2022/04/28 00:28:53;;;;;;;10.07;4.13;;;;;;;17.93;49.81;99550.03;5033913;28;20026;-85
2022/04/28 00:31:18;;;;;;;6.20;4.13;;;;;;;17.26;49.61;99449.59;5033796;28;20542;-85
2022/04/28 00:33:44;;;;;;;8.15;4.20;;;;;;;17.41;49.70;99484.72;5033707;28;20542;-85
2022/04/28 00:36:10;;;;;;;3.92;3.58;;;;;;;16.93;50.12;99409.94;5033702;28;20036;-85
2022/04/28 00:38:35;;;;;;;8.02;4.80;;;;;;;17.46;49.85;99507.03;5016027;28;20029;-84
2022/04/28 00:41:01;;;;;;;7.60;3.90;;;;;;;17.75;49.78;99552.72;5033322;28;20018;-85
2022/04/28 00:43:29;;;;;;;9.18;4.78;;;;;;;17.64;50.05;99554.25;5016375;28;20483;-85
2022/04/28 00:45:55;;;;;;;6.07;4.30;;;;;;;16.87;50.13;99440.16;5033838;28;20087;-84
2022/04/28 00:51:08;;;;;;;5.18;4.38;;;;;;;17.35;50.53;99565.66;5033557;28;20091;-85
2022/04/28 00:53:40;;;;;;;7.68;5.20;;;;;;;17.22;50.94;99557.81;5033733;28;20030;-85
2022/04/28 00:56:06;;;;;;;5.93;4.40;;;;;;;16.94;51.02;99556.38;5016003;28;20064;-85
2022/04/28 00:58:31;;;;;;;6.38;4.65;;;;;;;15.94;51.00;99389.47;5033547;28;20580;-85
2022/04/28 01:00:57;;;;;;;7.90;4.70;;;;;;;16.38;51.17;99474.59;5033450;28;20025;-85
2022/04/28 01:03:30;;;;;;;5.32;4.40;;;;;;;16.81;51.30;99562.66;5016786;28;20029;-85
2022/04/28 01:05:55;;;;;;;5.07;4.50;;;;;;;16.57;51.83;99565.28;5033773;28;20021;-84
2022/04/28 01:08:21;;;;;;;8.07;4.55;;;;;;;16.02;52.18;99469.09;5032128;28;20025;-84
2022/04/28 01:10:47;;;;;;;5.25;4.68;;;;;;;15.99;51.76;99478.34;5015930;28;20512;-84
2022/04/28 01:13:12;;;;;;;6.65;4.43;;;;;;;16.45;51.75;99539.31;5033395;28;20029;-84
2022/04/28 01:15:49;;;;;;;6.30;5.03;;;;;;;16.24;51.62;99523.66;5033582;28;20138;-84
2022/04/28 01:18:16;;;;;;;7.47;4.70;;;;;;;16.14;51.86;99523.31;5032801;28;20097;-84
2022/04/28 01:20:42;;;;;;;6.90;4.57;;;;;;;16.34;51.70;99561.31;5032916;28;20060;-84
2022/04/28 01:23:08;;;;;;;7.97;4.75;;;;;;;16.24;52.00;99552.16;5015243;28;20021;-85
2022/04/28 01:25:34;;;;;;;9.68;4.85;;;;;;;15.56;51.99;99457.63;5032857;28;20032;-84
2022/04/28 01:28:00;;;;;;;5.53;4.65;;;;;;;16.12;52.39;99542.19;5032715;28;20025;-84
2022/04/28 01:30:25;;;;;;;7.10;4.32;;;;;;;15.33;52.42;99432.56;5032778;28;20036;-85
2022/04/28 01:32:52;;;;;;;6.45;4.90;;;;;;;15.37;52.37;99439.91;5014788;28;20033;-84
2022/04/28 01:35:18;;;;;;;8.68;4.75;;;;;;;15.93;52.39;99534.28;5032337;28;20052;-84
2022/04/28 01:37:43;;;;;;;5.60;4.53;;;;;;;15.40;52.29;99444.81;5032316;28;20395;-85
2022/04/28 01:40:11;;;;;;;4.93;4.40;;;;;;;15.95;52.21;99506.44;5014798;28;20083;-84
2022/04/28 01:42:50;;;;;;;5.63;4.38;;;;;;;15.87;52.30;99502.16;5032450;28;20555;-84
2022/04/28 01:45:17;;;;;;;8.10;4.20;;;;;;;16.33;52.16;99550.88;5014791;28;20109;-84
2022/04/28 01:47:43;;;;;;;5.53;4.65;;;;;;;15.68;51.99;99449.03;5014746;28;20037;-85
2022/04/28 01:50:10;;;;;;;5.68;5.07;;;;;;;16.12;51.91;99536.03;5014754;28;20107;-84
2022/04/28 01:55:21;;;;;;;5.07;4.53;;;;;;;15.99;51.67;99504.97;5032571;28;20095;-86
2022/04/28 01:57:46;;;;;;;7.07;4.70;;;;;;;15.73;51.91;99474.00;5014572;28;20077;-85
2022/04/28 02:00:13;;;;;;;8.68;4.85;;;;;;;15.47;51.79;99447.44;5014502;28;20029;-86
2022/04/28 02:02:38;;;;;;;7.55;4.65;;;;;;;16.08;52.33;99580.09;5014709;28;20099;-85
2022/04/28 02:05:05;;;;;;;7.72;5.20;;;;;;;16.05;52.60;99567.22;5032545;28;20700;-86
2022/04/28 02:07:31;;;;;;;7.10;4.60;;;;;;;16.00;52.37;99572.38;5032533;28;20495;-86
2022/04/28 02:09:57;;;;;;;8.02;4.95;;;;;;;15.97;52.07;99567.47;5032076;28;20017;-83
2022/04/28 02:12:24;;;;;;;4.90;4.40;;;;;;;14.97;52.26;99419.81;5014450;28;20479;-84
2022/04/28 02:14:50;;;;;;;7.00;5.13;;;;;;;15.36;52.69;99488.00;5014453;28;20031;-86
2022/04/28 02:17:26;;;;;;;6.13;4.72;;;;;;;15.74;52.55;99555.47;5013997;28;20108;-84
2022/04/28 02:19:52;;;;;;;6.53;4.72;;;;;;;14.79;52.77;99420.44;5013967;28;20387;-84
2022/04/28 02:22:18;;;;;;;7.15;5.18;;;;;;;15.67;52.67;99561.84;5013797;28;20091;-85
2022/04/28 02:24:44;;;;;;;9.55;5.20;;;;;;;15.00;52.68;99502.63;5031458;28;20022;-85
2022/04/28 02:27:10;;;;;;;7.40;4.88;;;;;;;15.57;52.82;99559.56;5013850;28;20479;-84
2022/04/28 02:29:36;;;;;;;6.88;5.68;;;;;;;14.83;52.81;99467.66;5031458;28;20536;-84
2022/04/28 02:32:02;;;;;;;7.25;5.45;;;;;;;14.69;52.92;99443.97;5031524;28;20045;-84
2022/04/28 02:34:28;;;;;;;6.70;5.32;;;;;;;15.40;52.88;99567.19;5031358;28;20079;-84
2022/04/28 02:36:53;;;;;;;5.53;4.82;;;;;;;14.51;53.14;99429.50;5031679;28;20034;-85
2022/04/28 02:39:19;;;;;;;6.57;5.05;;;;;;;15.31;53.00;99565.78;5014013;28;20490;-85
2022/04/28 02:41:46;;;;;;;7.63;5.25;;;;;;;14.98;53.04;99514.50;5014184;28;20022;-85
2022/04/28 02:44:14;;;;;;;6.07;5.20;;;;;;;15.24;53.22;99570.31;5031838;28;20017;-85
2022/04/28 02:46:45;;;;;;;9.25;5.38;;;;;;;14.48;53.28;99483.03;5031572;28;20100;-85
2022/04/28 02:49:12;;;;;;;7.57;4.88;;;;;;;15.18;53.43;99577.28;5031514;28;20041;-85
2022/04/28 02:51:38;;;;;;;6.00;5.40;;;;;;;14.89;53.15;99546.63;5031526;28;20037;-86
2022/04/28 02:54:05;;;;;;;7.88;5.50;;;;;;;14.79;53.40;99535.56;5031732;28;20053;-85
2022/04/28 02:56:30;;;;;;;9.35;5.82;;;;;;;15.05;53.33;99563.19;5031436;28;20032;-85
2022/04/28 02:58:56;;;;;;;7.40;5.20;;;;;;;14.98;53.04;99541.91;5030086;28;20488;-85
2022/04/28 03:01:22;;;;;;;9.25;4.85;;;;;;;14.49;53.30;99462.59;5031564;28;20090;-86
2022/04/28 03:03:47;;;;;;;7.07;4.95;;;;;;;15.18;52.82;99590.56;5014723;28;20013;-85
2022/04/28 03:11:41;;;;;;;7.18;5.28;;;;;;;14.61;53.30;99514.09;5035466;28;20414;-85
2022/04/28 03:14:08;;;;;;;6.90;5.60;;;;;;;14.15;53.13;99442.34;5035262;28;20026;-85
2022/04/28 03:16:34;;;;;;;6.97;4.90;;;;;;;14.76;53.01;99553.75;5035588;28;20018;-85
2022/04/28 03:18:59;;;;;;;6.63;5.97;;;;;;;14.29;53.55;99481.97;5035274;28;20383;-85
2022/04/28 03:21:25;;;;;;;8.88;5.90;;;;;;;14.69;53.31;99545.78;5034156;28;20071;-85
2022/04/28 03:23:51;;;;;;;7.07;5.63;;;;;;;14.29;53.30;99478.50;5033945;28;20112;-85
2022/04/28 03:26:17;;;;;;;6.50;5.63;;;;;;;14.90;53.37;99625.34;5017372;28;20029;-85
2022/04/28 03:28:42;;;;;;;6.68;5.72;;;;;;;14.52;53.21;99537.41;5035108;28;20025;-85
2022/04/28 03:31:08;;;;;;;9.18;5.70;;;;;;;14.90;53.19;99608.59;5034982;28;20026;-85
2022/04/28 03:33:34;;;;;;;6.30;5.57;;;;;;;14.82;53.53;99609.56;5033501;28;20018;-86
2022/04/28 03:36:00;;;;;;;6.50;5.20;;;;;;;13.79;53.54;99470.03;5017288;28;20489;-85
2022/04/28 03:38:25;;;;;;;5.88;5.30;;;;;;;14.00;53.60;99483.16;5034581;28;20018;-86
2022/04/28 03:40:51;;;;;;;6.22;5.43;;;;;;;13.98;53.67;99487.03;5016879;28;20016;-85
2022/04/28 03:43:17;;;;;;;7.93;6.00;;;;;;;14.79;53.73;99619.78;5033449;28;20441;-86
2022/04/28 03:45:43;;;;;;;7.70;6.40;;;;;;;14.84;53.77;99620.00;5033102;28;20105;-85
2022/04/28 03:48:09;;;;;;;6.97;5.35;;;;;;;14.85;53.43;99621.63;5034672;28;20033;-85
2022/04/28 03:50:36;;;;;;;7.97;5.95;;;;;;;14.87;53.51;99631.06;5034686;28;20103;-86
2022/04/28 03:53:02;;;;;;;9.52;5.97;;;;;;;14.56;53.83;99598.91;5017048;28;20075;-85
2022/04/28 03:55:28;;;;;;;6.38;5.70;;;;;;;14.66;53.56;99652.50;5034826;28;20490;-85
2022/04/28 03:57:53;;;;;;;8.13;6.07;;;;;;;14.83;53.61;99642.28;5034579;28;20060;-85
2022/04/28 04:00:19;;;;;;;8.20;6.40;;;;;;;14.34;53.42;99579.66;5034362;28;20577;-85
2022/04/28 04:02:46;;;;;;;7.65;6.05;;;;;;;14.02;53.45;99520.09;5016787;28;20021;-85
2022/04/28 04:05:11;;;;;;;7.80;6.30;;;;;;;13.74;53.43;99459.22;5034508;28;20064;-85
2022/04/28 04:07:38;;;;;;;11.70;6.35;;;;;;;14.10;53.82;99558.94;5034638;28;20562;-85
2022/04/28 04:10:08;;;;;;;9.15;5.88;;;;;;;14.68;53.99;99647.78;5016698;28;20030;-85
2022/04/28 04:12:33;;;;;;;8.35;7.00;;;;;;;14.08;53.80;99556.47;5034372;28;20025;-85
2022/04/28 04:14:59;;;;;;;8.40;6.30;;;;;;;14.33;54.35;99593.94;5033940;28;20032;-86
2022/04/28 04:17:24;;;;;;;6.85;6.15;;;;;;;14.04;53.89;99549.94;5033933;28;20025;-85
2022/04/28 04:19:50;;;;;;;9.23;7.03;;;;;;;14.49;53.75;99612.19;5034422;28;20017;-85
2022/04/28 04:22:16;;;;;;;7.85;6.40;;;;;;;13.99;54.02;99513.38;5016772;28;20036;-85
2022/04/28 04:24:41;;;;;;;9.63;7.15;;;;;;;13.81;54.15;99489.22;5016684;28;20521;-85
2022/04/28 04:27:09;;;;;;;8.55;6.20;;;;;;;14.59;54.42;99617.94;5034142;28;20029;-85
2022/04/28 04:29:37;;;;;;;8.30;6.63;;;;;;;14.11;54.33;99545.44;5016499;28;20107;-85
2022/04/28 04:32:18;;;;;;;9.20;7.07;;;;;;;14.99;54.02;99665.03;5016226;28;20017;-85
2022/04/28 04:34:45;;;;;;;10.57;7.18;;;;;;;14.61;54.28;99641.66;5033846;28;20021;-85
2022/04/28 04:37:11;;;;;;;12.45;7.70;;;;;;;14.20;54.06;99557.56;5015907;28;20033;-85
2022/04/28 04:39:37;;;;;;;14.18;7.03;;;;;;;14.98;54.04;99658.09;5033711;28;20025;-85
2022/04/28 04:42:03;;;;;;;11.93;7.15;;;;;;;14.87;53.88;99632.91;5015739;28;20087;-85
2022/04/28 04:44:28;;;;;;;11.45;7.68;;;;;;;14.59;53.97;99588.72;5015639;28;20024;-85
2022/04/28 04:46:54;;;;;;;9.20;6.72;;;;;;;14.30;53.97;99526.13;5033733;28;20025;-85
2022/04/28 04:49:19;;;;;;;10.15;6.63;;;;;;;14.65;54.33;99589.72;5032443;28;20020;-85
2022/04/28 04:51:45;;;;;;;10.43;7.35;;;;;;;15.39;54.20;99679.16;5033853;28;20026;-85
2022/04/28 04:54:10;;;;;;;10.27;7.30;;;;;;;14.40;54.56;99512.44;5033440;28;20494;-86
2022/04/28 04:56:36;;;;;;;8.15;6.82;;;;;;;15.22;54.43;99658.28;5015668;28;20029;-85
2022/04/28 04:59:04;;;;;;;11.50;7.60;;;;;;;14.86;54.42;99570.97;5033355;28;20501;-85
2022/04/28 05:01:30;;;;;;;8.63;6.95;;;;;;;15.45;54.73;99673.00;5015444;28;20021;-85
2022/04/28 05:03:55;;;;;;;11.13;7.30;;;;;;;14.73;54.56;99547.00;5032953;28;20075;-85
2022/04/28 05:06:21;;;;;;;7.53;6.63;;;;;;;15.62;54.42;99676.94;5015082;28;20026;-85
2022/04/28 05:08:47;;;;;;;9.98;6.78;;;;;;;15.78;54.57;99681.81;5033180;28;20021;-85
2022/04/28 05:11:12;;;;;;;8.63;6.68;;;;;;;15.77;54.43;99698.00;5033187;28;20030;-86
2022/04/28 05:13:38;;;;;;;9.43;6.45;;;;;;;15.76;54.46;99707.81;5033312;28;20037;-85
2022/04/28 05:16:04;;;;;;;6.30;5.53;;;;;;;15.24;54.14;99608.38;5015508;28;20022;-85
2022/04/28 05:18:30;;;;;;;7.55;5.70;;;;;;;15.38;54.23;99608.34;5033029;28;20033;-85
2022/04/28 05:20:55;;;;;;;7.05;5.47;;;;;;;15.37;54.23;99620.81;5046177;28;20029;-86
2022/04/28 05:23:21;;;;;;;8.10;5.18;;;;;;;15.34;54.14;99596.47;5020919;28;20104;-85
2022/04/28 05:25:47;;;;;;;7.63;5.90;;;;;;;15.56;54.31;99617.31;5034498;28;20029;-85
2022/04/28 05:28:13;;;;;;;9.20;6.60;;;;;;;15.80;54.01;99633.69;5052042;28;20032;-85
2022/04/28 05:30:39;;;;;;;9.15;6.47;;;;;;;15.89;53.97;99649.22;5044348;28;20029;-85
2022/04/28 05:33:04;;;;;;;8.55;6.78;;;;;;;14.78;53.69;99456.84;5032643;28;20029;-85
2022/04/28 05:35:30;;;;;;;10.00;7.57;;;;;;;16.02;54.13;99667.00;5043955;28;20025;-85
2022/04/28 05:37:56;;;;;;;8.75;6.93;;;;;;;15.58;54.02;99617.94;5029684;28;20032;-85
2022/04/28 05:40:22;;;;;;;8.13;6.40;;;;;;;15.88;54.04;99642.25;5044100;28;20032;-85
2022/04/28 05:45:46;;;;;;;12.73;6.93;;;;;;;16.02;54.17;99669.66;5052223;28;20410;-84
2022/04/28 05:48:18;;;;;;;9.20;6.15;;;;;;;16.02;54.38;99647.53;5033808;28;20041;-84
2022/04/28 05:50:45;;;;;;;10.98;7.63;;;;;;;15.91;54.05;99646.34;5051762;28;20021;-85
2022/04/28 05:53:11;;;;;;;7.45;6.68;;;;;;;16.53;54.52;99730.97;5051983;28;20040;-85
2022/04/28 05:55:37;;;;;;;6.65;5.97;;;;;;;16.50;54.33;99719.91;5033984;28;20028;-85
2022/04/28 05:58:03;;;;;;;8.43;7.38;;;;;;;16.55;54.07;99713.94;5032378;28;20509;-85
2022/04/28 06:00:29;;;;;;;9.38;6.97;;;;;;;16.35;53.92;99663.38;5051460;28;20021;-85
2022/04/28 06:02:55;;;;;;;9.13;6.00;;;;;;;16.72;53.88;99725.78;5034347;28;20472;-85
2022/04/28 06:05:21;;;;;;;7.45;6.75;;;;;;;16.60;53.97;99716.78;5051456;28;20104;-84
2022/04/28 06:07:47;;;;;;;7.10;6.13;;;;;;;16.14;54.26;99621.88;5026764;28;20025;-83
2022/04/28 06:10:13;;;;;;;7.80;5.57;;;;;;;16.86;53.72;99735.34;5036699;28;20433;-83
2022/04/28 06:12:39;;;;;;;8.48;6.80;;;;;;;16.30;53.76;99640.03;5020628;28;20025;-84
2022/04/28 06:15:05;;;;;;;7.95;5.82;;;;;;;16.55;53.71;99693.44;5019219;28;20025;-84
2022/04/28 06:17:31;;;;;;;8.13;5.70;;;;;;;15.57;53.54;99522.31;5022128;28;20090;-84
2022/04/28 06:19:56;;;;;;;10.82;6.03;;;;;;;16.17;53.32;99621.44;5044766;28;20103;-84
2022/04/28 06:22:22;;;;;;;7.43;6.10;;;;;;;16.18;53.61;99604.44;5036263;28;20017;-84
2022/04/28 06:24:54;;;;;;;7.03;6.00;;;;;;;16.79;53.70;99686.56;5024666;28;20036;-84
2022/04/28 06:27:20;;;;;;;8.07;5.85;;;;;;;17.12;53.32;99737.88;5037025;28;20029;-84
2022/04/28 06:29:48;;;;;;;6.57;4.35;;;;;;;16.79;53.59;99699.91;5042014;28;20044;-84
2022/04/28 06:32:17;;;;;;;7.32;5.07;;;;;;;17.14;53.89;99737.66;5026168;28;20036;-84
2022/04/28 06:34:43;;;;;;;7.80;6.38;;;;;;;17.10;53.68;99734.59;5044066;28;20021;-84
2022/04/28 06:37:09;;;;;;;8.02;6.03;;;;;;;17.04;53.60;99718.63;5041722;28;20116;-83
2022/04/28 06:39:34;;;;;;;12.50;5.75;;;;;;;16.69;53.71;99649.72;5048512;28;20043;-84
2022/04/28 06:42:00;;;;;;;8.23;5.50;;;;;;;17.31;53.41;99737.94;5038457;28;20485;-84
2022/04/28 06:44:25;;;;;;;9.38;6.53;;;;;;;17.00;53.55;99667.53;5040384;28;20409;-84
2022/04/28 06:46:51;;;;;;;10.13;6.40;;;;;;;16.74;53.53;99612.56;5030420;28;20025;-83
2022/04/28 06:49:16;;;;;;;12.80;8.27;;;;;;;16.66;53.58;99596.81;5036354;28;20024;-83
2022/04/28 06:51:41;;;;;;;7.22;5.65;;;;;;;17.24;53.12;99686.47;5048011;28;20059;-84
2022/04/28 06:54:08;;;;;;;7.88;5.78;;;;;;;17.43;52.74;99710.34;5018872;28;20384;-83
2022/04/28 06:56:34;;;;;;;11.68;7.40;;;;;;;17.66;52.70;99733.78;5036698;28;20032;-84
2022/04/28 06:58:59;;;;;;;8.00;6.13;;;;;;;17.84;52.68;99748.22;5037204;28;20029;-84
2022/04/28 07:01:25;;;;;;;11.38;7.25;;;;;;;16.63;52.44;99541.25;5023367;28;20135;-84
2022/04/28 07:03:50;;;;;;;8.90;5.18;;;;;;;17.40;52.10;99646.72;5046481;28;20409;-84
2022/04/28 07:06:16;;;;;;;7.97;5.80;;;;;;;17.64;51.81;99661.06;5038475;28;20953;-84
2022/04/28 07:08:43;;;;;;;10.38;7.22;;;;;;;17.35;51.92;99603.03;5045285;28;20022;-83
2022/04/28 07:11:09;;;;;;;7.63;5.00;;;;;;;17.87;51.24;99676.50;5050854;28;20056;-84
2022/04/28 07:13:36;;;;;;;5.90;4.93;;;;;;;17.78;50.99;99638.53;5043804;28;20474;-84
2022/04/28 07:16:02;;;;;;;8.98;5.50;;;;;;;17.70;51.10;99654.03;5036695;28;20021;-83
2022/04/28 07:18:27;;;;;;;9.05;5.75;;;;;;;18.22;51.04;99686.56;5018775;28;20032;-84
2022/04/28 07:20:53;;;;;;;7.43;5.53;;;;;;;18.23;50.72;99686.34;5048854;28;20074;-84
2022/04/28 07:23:18;;;;;;;8.57;4.97;;;;;;;17.98;50.75;99634.84;5049450;28;20100;-83
2022/04/28 07:25:44;;;;;;;7.32;5.63;;;;;;;18.51;50.50;99715.19;5049027;28;20032;-83
2022/04/28 07:28:09;;;;;;;6.40;5.50;;;;;;;18.15;50.17;99643.91;5049474;28;20406;-83
2022/04/28 07:30:34;;;;;;;7.95;4.47;;;;;;;18.44;50.02;99674.38;5038823;28;20028;-84
2022/04/28 07:33:00;;;;;;;7.90;4.60;;;;;;;18.27;49.89;99635.94;5033253;28;20026;-83
2022/04/28 07:35:25;;;;;;;14.32;8.02;;;;;;;18.22;49.59;99617.91;5033238;28;20111;-84
2022/04/28 07:37:52;;;;;;;9.68;5.80;;;;;;;19.00;49.69;99732.91;5013929;28;20064;-84
2022/04/28 07:40:18;;;;;;;16.45;9.68;;;;;;;18.83;49.36;99702.47;5032669;28;20021;-83
2022/04/28 07:42:44;;;;;;;6.78;4.95;;;;;;;19.01;48.74;99705.09;5032586;28;20378;-83
2022/04/28 07:45:10;;;;;;;10.88;8.25;;;;;;;19.26;48.48;99734.34;5026464;28;20379;-84
2022/04/28 07:47:36;;;;;;;7.97;6.18;;;;;;;19.04;48.17;99704.63;5026018;28;20047;-84
2022/04/28 07:50:02;;;;;;;6.93;4.97;;;;;;;18.76;47.95;99636.75;5049816;28;20117;-84
2022/04/28 07:52:27;;;;;;;7.60;5.53;;;;;;;19.03;47.76;99660.19;5021679;28;20075;-83
2022/04/28 07:54:53;;;;;;;5.90;3.80;;;;;;;19.53;47.56;99742.03;5036138;28;20035;-83
2022/04/28 07:57:22;;;;;;;7.30;4.57;;;;;;;18.94;47.48;99631.31;5021616;28;20041;-83
2022/04/28 07:59:47;;;;;;;5.05;4.03;;;;;;;19.02;47.28;99618.41;5049571;28;20090;-83
2022/04/28 08:02:14;;;;;;;5.38;4.60;;;;;;;19.70;47.23;99724.22;5046354;28;20032;-83
2022/04/28 08:04:39;;;;;;;4.93;3.78;;;;;;;19.99;46.90;99738.53;5031562;28;20029;-84
2022/04/28 08:07:05;;;;;;;6.97;4.03;;;;;;;19.42;46.72;99639.19;5030417;28;20025;-84
2022/04/28 08:09:31;;;;;;;6.03;4.45;;;;;;;19.57;46.31;99636.88;5048455;28;20036;-84
2022/04/28 08:11:56;;;;;;;6.70;3.90;;;;;;;20.40;46.16;99742.94;5050633;28;20034;-83
2022/04/28 08:14:23;;;;;;;7.35;3.50;;;;;;;20.09;46.00;99685.16;5039725;28;20107;-83
2022/04/28 08:16:49;;;;;;;8.40;3.60;;;;;;;19.47;45.98;99580.38;5017802;28;20034;-83
2022/04/28 08:19:15;;;;;;;10.55;5.88;;;;;;;20.03;45.96;99642.38;5042377;28;20036;-84
2022/04/28 08:21:40;;;;;;;7.78;4.10;;;;;;;20.57;45.30;99708.94;5042583;28;20469;-83
2022/04/28 08:24:06;;;;;;;8.45;4.40;;;;;;;20.40;45.39;99700.03;5035785;28;20017;-84
2022/04/28 08:26:31;;;;;;;6.18;4.65;;;;;;;20.62;45.45;99703.69;5048800;28;20437;-83
2022/04/28 08:28:57;;;;;;;6.35;4.18;;;;;;;20.69;45.36;99708.91;5040794;28;20020;-82
2022/04/28 08:31:22;;;;;;;7.85;4.53;;;;;;;20.24;45.27;99601.53;5036660;28;20059;-83
2022/04/28 08:33:48;;;;;;;11.52;5.40;;;;;;;20.64;45.16;99665.88;5033383;28;20141;-85
2022/04/28 08:36:15;;;;;;;7.78;5.53;;;;;;;20.97;45.08;99685.81;5038746;28;20024;-83
2022/04/28 08:38:42;;;;;;;7.25;4.43;;;;;;;20.96;44.66;99647.41;5040088;28;20021;-83
2022/04/28 08:41:09;;;;;;;12.15;6.65;;;;;;;21.40;44.01;99698.63;5053204;28;20063;-85
2022/04/28 08:43:37;;;;;;;6.78;4.20;;;;;;;21.66;43.45;99722.16;5035178;28;20021;-84
2022/04/28 08:48:53;;;;;;;8.75;4.22;;;;;;;21.54;42.59;99655.06;5040297;28;20067;-84
2022/04/28 08:51:26;;;;;;;9.70;5.72;;;;;;;22.05;42.06;99723.03;5039675;28;20060;-83
2022/04/28 08:53:53;;;;;;;7.55;5.70;;;;;;;22.08;42.08;99727.91;5047185;28;20029;-84
2022/04/28 08:56:21;;;;;;;12.35;4.10;;;;;;;22.25;42.13;99717.09;5028879;28;20021;-83
2022/04/28 08:58:47;;;;;;;6.38;4.07;;;;;;;21.78;41.83;99609.19;5021463;28;22093;-83
2022/04/28 09:01:13;;;;;;;6.43;4.07;;;;;;;21.65;41.60;99572.75;5022406;28;20146;-84
2022/04/28 09:03:40;;;;;;;8.00;3.88;;;;;;;22.76;41.00;99710.44;5041323;28;20024;-84
2022/04/28 09:06:20;;;;;;;5.07;3.05;;;;;;;22.67;40.35;99660.81;5024760;28;20028;-84
2022/04/28 09:08:46;;;;;;;6.03;3.03;;;;;;;22.76;40.82;99663.84;5022900;28;20029;-83
2022/04/28 09:11:22;;;;;;;8.05;4.35;;;;;;;23.09;40.58;99708.66;5037598;28;20506;-83
2022/04/28 09:14:11;;;;;;;11.77;8.98;;;;;;;23.32;40.25;99702.09;5025598;28;20417;-84
2022/04/28 09:16:47;;;;;;;9.38;4.90;;;;;;;23.54;39.87;99702.81;5051382;28;20102;-82
2022/04/28 09:19:15;;;;;;;5.57;3.42;;;;;;;23.45;39.54;99656.66;5030908;28;20044;-82
2022/04/28 09:21:41;;;;;;;5.85;2.95;;;;;;;23.85;38.63;99695.78;5033780;28;20021;-82
2022/04/28 09:24:09;;;;;;;5.15;2.92;;;;;;;23.96;38.07;99675.88;5043600;28;20029;-82
2022/04/28 09:26:35;;;;;;;7.30;3.78;;;;;;;24.31;37.86;99699.53;5045951;28;20101;-82
2022/04/28 09:29:03;;;;;;;9.10;3.78;;;;;;;23.88;37.34;99602.75;5058732;28;20036;-82
2022/04/28 09:31:33;;;;;;;4.40;3.15;;;;;;;24.62;36.89;99694.25;5051680;28;20409;-83
2022/04/28 09:34:07;;;;;;;8.43;3.35;;;;;;;24.52;35.99;99675.31;5047703;28;20032;-83
2022/04/28 09:36:33;;;;;;;8.23;2.90;;;;;;;24.84;36.19;99694.03;5014450;28;20022;-83
2022/04/28 09:38:58;;;;;;;7.53;4.50;;;;;;;24.40;35.88;99590.00;5013959;28;20028;-83
2022/04/28 09:44:12;;;;;;;5.68;2.42;;;;;;;25.27;34.34;99641.41;5031010;28;20020;-82
2022/04/28 09:46:42;;;;;;;5.40;2.17;;;;;;;25.36;34.26;99636.25;5013817;28;20030;-82
2022/04/28 09:49:12;;;;;;;5.68;2.30;;;;;;;25.81;33.26;99676.75;5046849;28;20033;-82
2022/04/28 09:51:41;;;;;;;7.17;2.60;;;;;;;25.94;32.64;99670.75;5025515;28;20017;-82
2022/04/28 09:54:11;;;;;;;11.10;7.43;;;;;;;26.10;32.03;99676.16;5032576;28;20049;-82
2022/04/28 09:56:38;;;;;;;4.90;3.00;;;;;;;26.22;31.67;99676.63;5026540;28;20036;-82
2022/04/28 09:59:06;;;;;;;8.40;3.28;;;;;;;26.49;31.25;99665.44;5043668;28;20037;-82
2022/04/28 10:01:33;;;;;;;5.68;1.90;;;;;;;26.50;30.44;99646.19;5038010;28;20414;-82
2022/04/28 10:03:59;;;;;;;11.45;8.27;;;;;;;26.26;30.40;99601.91;5013905;28;20026;-82
2022/04/28 10:06:25;;;;;;;7.32;2.80;;;;;;;27.00;29.86;99657.00;5031462;28;20568;-82
2022/04/28 10:08:55;;;;;;;5.85;3.10;;;;;;;27.10;29.95;99656.91;5013555;28;20022;-82
2022/04/28 10:11:22;;;;;;;6.40;4.32;;;;;;;27.25;29.78;99661.41;5043721;28;20116;-82
2022/04/28 10:13:50;;;;;;;3.88;2.70;;;;;;;27.30;29.88;99661.34;5050552;28;20043;-82
2022/04/28 10:16:17;;;;;;;4.72;2.33;;;;;;;26.99;29.64;99590.34;5051412;28;20116;-82
2022/04/28 10:18:53;;;;;;;7.43;3.60;;;;;;;26.89;29.18;99574.97;5051397;28;20029;-82
2022/04/28 10:21:25;;;;;;;7.45;3.05;;;;;;;27.52;29.35;99642.72;5013832;28;20026;-82
2022/04/28 10:32:54;;;;;;;5.85;3.00;;;;;;;28.18;28.03;99636.53;5031355;28;20036;-81
2022/04/28 10:35:39;;;;;;;5.43;2.78;;;;;;;28.32;28.12;99625.81;5031103;28;20064;-81
2022/04/28 10:38:04;;;;;;;5.20;2.72;;;;;;;28.49;28.31;99636.97;5013406;28;20124;-82
2022/04/28 10:40:36;;;;;;;5.53;3.15;;;;;;;27.99;27.72;99538.81;5013108;28;20124;-82
2022/04/28 10:43:02;;;;;;;3.88;2.20;;;;;;;28.60;27.22;99632.22;5030811;28;20025;-81
2022/04/28 10:45:40;;;;;;;6.78;3.95;;;;;;;28.86;27.12;99632.66;5042585;28;20020;-83
2022/04/28 10:50:59;;;;;;;6.55;3.13;;;;;;;27.99;26.91;99430.25;5050658;28;20386;-82
2022/04/28 10:53:25;;;;;;;9.88;5.57;;;;;;;28.39;27.00;99504.88;5047361;28;20036;-82
2022/04/28 10:55:52;;;;;;;6.28;3.33;;;;;;;28.73;27.15;99569.78;5033391;28;20029;-81
2022/04/28 10:58:24;;;;;;;3.03;2.30;;;;;;;28.51;26.88;99522.59;5051205;28;20053;-82
2022/04/28 11:01:00;;;;;;;5.00;3.20;;;;;;;29.40;27.13;99612.97;5050954;28;20025;-82
2022/04/28 11:03:55;;;;;;;4.90;3.00;;;;;;;29.62;26.65;99612.31;5063508;28;20038;-82
2022/04/28 11:06:31;;;;;;;4.32;2.53;;;;;;;29.46;26.29;99579.16;5030472;28;20029;-82
2022/04/28 11:08:59;;;;;;;5.55;3.13;;;;;;;29.54;26.13;99589.31;5033027;28;20118;-83
2022/04/28 11:11:28;;;;;;;4.45;3.17;;;;;;;28.76;25.70;99459.66;5050806;28;20036;-83
2022/04/28 11:13:59;;;;;;;5.28;2.72;;;;;;;29.61;25.48;99595.16;5034069;28;20090;-83
2022/04/28 11:16:26;;;;;;;4.80;2.65;;;;;;;29.38;25.51;99621.44;5012957;28;20030;-83
2022/04/28 11:18:53;;;;;;;5.38;2.42;;;;;;;29.44;25.21;99624.88;5034443;28;20057;-82
2022/04/28 11:21:19;;;;;;;7.85;3.72;;;;;;;29.64;25.52;99621.78;5019481;28;20115;-82
2022/04/28 11:23:47;;;;;;;6.63;2.55;;;;;;;29.76;25.11;99623.22;5028127;28;20021;-83
2022/04/28 11:26:13;;;;;;;5.35;2.92;;;;;;;29.07;25.15;99473.56;5049136;28;20560;-83
2022/04/28 11:28:40;;;;;;;5.75;2.83;;;;;;;29.68;25.34;99571.09;5052328;28;20509;-83
2022/04/28 11:31:14;;;;;;;4.00;1.88;;;;;;;30.23;25.08;99614.63;5052267;28;20032;-82
2022/04/28 11:33:48;;;;;;;8.90;3.13;;;;;;;29.83;24.95;99512.81;5051302;28;20521;-82
2022/04/28 11:36:17;;;;;;;7.40;3.08;;;;;;;29.97;25.28;99559.88;5050060;28;20025;-83
2022/04/28 11:38:51;;;;;;;7.07;3.63;;;;;;;30.20;25.18;99579.00;5035238;28;20040;-83
2022/04/28 11:41:22;;;;;;;7.25;3.63;;;;;;;30.57;25.01;99605.97;5052893;28;20099;-82
2022/04/28 11:43:48;;;;;;;6.32;2.67;;;;;;;30.07;24.93;99515.31;5024772;28;20430;-83
2022/04/28 11:46:14;;;;;;;4.07;2.80;;;;;;;30.20;24.64;99509.00;5023816;28;20029;-82
2022/04/28 11:48:40;;;;;;;3.47;2.35;;;;;;;30.80;24.88;99582.25;5050656;28;20033;-82
2022/04/28 11:51:05;;;;;;;6.68;4.40;;;;;;;30.85;24.89;99582.13;5050939;28;20033;-82
2022/04/28 11:53:45;;;;;;;7.15;3.65;;;;;;;30.30;25.25;99516.13;5033397;28;20036;-81
2022/04/28 11:56:18;;;;;;;7.22;2.17;;;;;;;30.08;25.06;99494.34;5025423;28;20509;-82
2022/04/28 11:58:48;;;;;;;6.00;3.72;;;;;;;29.81;24.77;99418.97;5023614;28;20430;-82
2022/04/28 12:01:14;;;;;;;5.85;2.42;;;;;;;30.52;24.70;99527.06;5034002;28;20033;-81
2022/04/28 12:03:48;;;;;;;4.18;2.35;;;;;;;30.32;24.51;99486.66;5040935;28;20150;-81